Time;durP1;ratioP1;P1;durP2;ratioP2;P2;SDS_P1;SDS_P2;PMS_P1;PMS_P2;Temp;Humidity;BMP_temperature;BMP_pressure;BME280_temperature;BME280_humidity;BME280_pressure;Samples;Min_cycle;Max_cycle;Signal;HPM_P1;HPM_P2
2022/07/06 00:00:09;;;;;;;12.18;10.93;;;;;;;20.95;73.67;94610.88;4146250;28;20462;-66
2022/07/06 00:02:11;;;;;;;11.70;10.50;;;;;;;21.05;73.53;94615.63;4144977;28;20053;-67
2022/07/06 00:04:13;;;;;;;14.80;10.57;;;;;;;21.06;73.08;94611.97;4143653;28;20129;-65
2022/07/06 00:06:16;;;;;;;15.07;10.75;;;;;;;21.03;72.48;94602.53;4143456;28;20050;-66
2022/07/06 00:08:18;;;;;;;11.05;9.95;;;;;;;20.98;72.52;94615.72;4135454;28;20453;-65
2022/07/06 00:10:21;;;;;;;11.18;9.82;;;;;;;21.01;73.63;94614.47;4145771;28;20577;-66
2022/07/06 00:12:22;;;;;;;12.38;10.57;;;;;;;20.86;76.05;94622.84;4145830;28;20057;-66
2022/07/06 00:14:24;;;;;;;13.30;11.00;;;;;;;20.82;76.78;94617.19;4131868;28;20108;-64
2022/07/06 00:16:26;;;;;;;17.98;10.93;;;;;;;20.44;78.87;94625.38;4132329;28;20054;-65
2022/07/06 00:18:28;;;;;;;13.80;11.25;;;;;;;20.46;79.27;94626.78;4139463;28;20064;-64
2022/07/06 00:20:30;;;;;;;14.38;11.85;;;;;;;20.56;79.34;94630.78;4144437;28;20050;-67
2022/07/06 00:22:32;;;;;;;15.25;11.48;;;;;;;20.80;79.17;94643.22;4144259;28;20054;-65
2022/07/06 00:24:34;;;;;;;13.38;11.93;;;;;;;21.08;78.11;94647.16;4145844;28;20053;-64
2022/07/06 00:26:35;;;;;;;15.43;12.88;;;;;;;21.30;77.04;94652.00;4145136;28;20057;-64
2022/07/06 00:28:37;;;;;;;17.13;13.25;;;;;;;21.51;76.14;94658.66;4144232;28;20112;-65
2022/07/06 00:30:39;;;;;;;14.50;13.00;;;;;;;21.66;74.95;94657.22;4139378;28;20057;-65
2022/07/06 00:32:41;;;;;;;14.15;11.90;;;;;;;21.76;74.71;94659.31;4134538;28;20061;-66
2022/07/06 00:34:43;;;;;;;12.27;10.98;;;;;;;21.78;73.52;94667.88;4144425;28;20112;-66
2022/07/06 00:36:45;;;;;;;13.35;11.00;;;;;;;21.74;73.91;94660.59;4145086;28;20448;-65
2022/07/06 00:38:47;;;;;;;18.80;12.00;;;;;;;21.62;73.46;94656.03;4143397;28;20062;-65
2022/07/06 00:40:49;;;;;;;12.57;11.27;;;;;;;21.66;73.63;94664.38;4129076;28;20112;-64
2022/07/06 00:42:51;;;;;;;12.75;10.93;;;;;;;21.65;73.22;94666.25;4127604;28;20061;-65
2022/07/06 00:44:52;;;;;;;12.88;11.15;;;;;;;21.67;73.13;94656.16;4128390;28;20116;-65
2022/07/06 00:46:54;;;;;;;14.23;11.70;;;;;;;21.64;72.68;94663.81;4141354;28;20336;-65
2022/07/06 00:48:56;;;;;;;12.73;11.10;;;;;;;21.52;73.25;94661.13;4129472;28;20387;-65
2022/07/06 00:50:58;;;;;;;15.50;11.70;;;;;;;21.48;73.12;94660.75;4142229;28;20046;-65
2022/07/06 00:53:02;;;;;;;14.32;11.45;;;;;;;21.43;73.20;94655.31;4134209;28;20046;-66
2022/07/06 00:55:04;;;;;;;16.40;11.82;;;;;;;21.45;73.40;94649.75;4145420;28;20501;-67
2022/07/06 00:57:06;;;;;;;13.25;11.73;;;;;;;20.71;75.53;94641.88;4143663;28;20046;-66
2022/07/06 00:59:08;;;;;;;14.60;12.98;;;;;;;20.29;77.65;94644.38;4142867;28;20485;-66
2022/07/06 01:01:10;;;;;;;16.42;13.48;;;;;;;20.04;79.38;94628.44;4128798;28;20050;-64
2022/07/06 01:03:12;;;;;;;15.25;13.50;;;;;;;19.86;80.76;94618.59;4132280;28;20066;-66
2022/07/06 01:05:15;;;;;;;14.18;12.55;;;;;;;19.96;81.32;94608.28;4137484;28;20113;-65
2022/07/06 01:07:17;;;;;;;18.08;14.90;;;;;;;19.82;80.96;94606.78;4130247;28;20050;-66
2022/07/06 01:09:18;;;;;;;16.88;15.05;;;;;;;19.88;80.87;94605.91;4134381;28;20375;-66
2022/07/06 01:11:20;;;;;;;16.33;14.63;;;;;;;19.85;80.52;94609.00;4141426;28;20060;-65
2022/07/06 01:13:22;;;;;;;18.98;16.70;;;;;;;19.57;82.12;94601.44;4137198;28;20112;-65
2022/07/06 01:15:25;;;;;;;17.85;15.93;;;;;;;19.64;82.07;94607.53;4136624;28;20644;-65
2022/07/06 01:17:26;;;;;;;19.05;15.32;;;;;;;19.85;81.97;94603.69;4132563;28;20501;-66
2022/07/06 01:19:28;;;;;;;21.50;15.63;;;;;;;19.89;80.70;94604.88;4138020;28;20054;-66
2022/07/06 01:21:30;;;;;;;17.40;15.48;;;;;;;19.49;82.08;94607.84;4139064;28;20561;-65
2022/07/06 01:23:32;;;;;;;17.65;15.55;;;;;;;19.53;82.49;94600.25;4128456;28;20051;-65
2022/07/06 01:25:34;;;;;;;22.95;15.30;;;;;;;19.43;82.90;94614.84;4135278;28;20485;-65
2022/07/06 01:27:38;;;;;;;18.08;14.88;;;;;;;19.40;83.12;94614.44;4133985;28;20137;-64
2022/07/06 01:29:40;;;;;;;20.23;14.30;;;;;;;19.34;83.34;94617.97;4142005;28;20054;-65
2022/07/06 01:31:49;;;;;;;19.25;15.73;;;;;;;19.35;83.05;94617.75;4128003;28;20053;-66
2022/07/06 01:33:54;;;;;;;17.85;14.80;;;;;;;19.32;83.29;94609.41;4127416;28;20046;-66
2022/07/06 01:35:56;;;;;;;17.27;14.75;;;;;;;19.30;83.23;94612.28;4136140;28;20505;-64
2022/07/06 01:37:58;;;;;;;17.98;14.38;;;;;;;19.54;83.05;94613.31;4145172;28;20054;-65
2022/07/06 01:40:04;;;;;;;18.58;14.45;;;;;;;19.81;81.92;94615.78;4126570;28;20120;-65
2022/07/06 01:42:06;;;;;;;15.93;12.85;;;;;;;20.07;80.38;94612.06;4131979;28;20104;-65
2022/07/06 01:44:08;;;;;;;16.40;12.55;;;;;;;20.29;78.89;94607.13;4143020;28;20108;-66
2022/07/06 01:46:11;;;;;;;16.55;12.20;;;;;;;20.45;78.03;94611.84;4140163;28;20489;-65
2022/07/06 01:48:13;;;;;;;14.38;12.00;;;;;;;20.62;77.22;94605.97;4142424;28;20072;-65
2022/07/06 01:50:15;;;;;;;12.98;10.60;;;;;;;20.73;76.02;94602.53;4141669;28;20053;-66
2022/07/06 01:52:16;;;;;;;15.73;10.80;;;;;;;20.78;75.18;94610.69;4122501;28;20054;-66
2022/07/06 01:54:18;;;;;;;11.20;9.95;;;;;;;20.88;74.81;94611.97;4133861;28;20050;-66
2022/07/06 01:56:20;;;;;;;12.20;9.43;;;;;;;20.89;74.42;94610.94;4141114;28;20050;-66
2022/07/06 01:58:22;;;;;;;13.05;9.32;;;;;;;20.97;74.16;94622.13;4141241;28;20204;-66
2022/07/06 02:00:25;;;;;;;10.98;9.73;;;;;;;20.94;74.37;94624.41;4128482;28;20081;-67
2022/07/06 02:02:27;;;;;;;13.45;9.88;;;;;;;21.00;73.77;94621.66;4137176;28;20498;-66
2022/07/06 02:04:28;;;;;;;10.98;9.45;;;;;;;21.00;73.55;94610.19;4142159;28;20477;-66
2022/07/06 02:06:30;;;;;;;12.55;9.23;;;;;;;21.04;73.17;94616.69;4127872;28;20050;-67
2022/07/06 02:08:33;;;;;;;11.27;9.13;;;;;;;21.06;72.77;94617.28;4133154;28;20538;-65
2022/07/06 02:10:34;;;;;;;13.00;9.07;;;;;;;21.07;72.26;94613.56;4143212;28;20088;-66
2022/07/06 02:12:36;;;;;;;11.23;8.85;;;;;;;21.02;72.01;94603.59;4133672;28;20411;-66
2022/07/06 02:14:38;;;;;;;11.63;8.48;;;;;;;21.09;71.74;94603.50;4127466;28;20051;-67
2022/07/06 02:16:40;;;;;;;12.00;8.65;;;;;;;21.04;71.76;94608.72;4130347;28;20050;-65
2022/07/06 02:18:42;;;;;;;8.57;7.65;;;;;;;20.98;71.27;94609.59;4142512;28;20053;-65
2022/07/06 02:20:44;;;;;;;10.00;7.78;;;;;;;21.01;70.95;94603.81;4136118;28;20297;-65
2022/07/06 02:22:46;;;;;;;11.18;7.57;;;;;;;21.00;70.08;94612.84;4138178;28;20056;-64
2022/07/06 02:24:47;;;;;;;10.45;7.80;;;;;;;20.98;70.30;94597.09;4131903;28;20076;-65
2022/07/06 02:26:49;;;;;;;9.05;7.90;;;;;;;21.04;70.29;94608.72;4146368;28;20115;-66
2022/07/06 02:28:51;;;;;;;8.93;7.93;;;;;;;21.08;69.96;94609.88;4147483;28;20053;-65
2022/07/06 02:30:53;;;;;;;10.43;8.50;;;;;;;21.16;69.57;94603.41;4139166;28;20055;-66
2022/07/06 02:32:55;;;;;;;10.40;8.73;;;;;;;21.20;69.69;94604.56;4129884;28;20494;-66
2022/07/06 02:34:58;;;;;;;11.20;8.48;;;;;;;21.21;68.84;94604.34;4130843;28;20478;-67
2022/07/06 02:37:00;;;;;;;9.95;7.90;;;;;;;21.21;69.35;94600.88;4130939;28;20046;-65
2022/07/06 02:39:02;;;;;;;10.35;8.93;;;;;;;21.16;69.00;94609.53;4137503;28;20050;-66
2022/07/06 02:41:04;;;;;;;12.43;9.15;;;;;;;21.08;68.76;94604.56;4145110;28;20092;-67
2022/07/06 02:43:06;;;;;;;10.68;9.52;;;;;;;21.01;69.27;94601.94;4136054;28;20054;-66
2022/07/06 02:45:09;;;;;;;12.45;9.93;;;;;;;20.97;69.11;94598.16;4130710;28;20046;-66
2022/07/06 02:47:10;;;;;;;13.13;9.95;;;;;;;20.93;69.32;94596.97;4144347;28;20410;-65
2022/07/06 02:49:12;;;;;;;10.43;8.90;;;;;;;21.00;69.13;94602.19;4129429;28;20057;-65
2022/07/06 02:51:14;;;;;;;11.70;9.35;;;;;;;21.04;69.00;94595.38;4131109;28;20054;-67
2022/07/06 02:53:18;;;;;;;11.75;9.18;;;;;;;21.06;69.04;94601.31;4137658;28;20065;-69
2022/07/06 02:55:20;;;;;;;10.98;9.45;;;;;;;21.04;68.68;94604.19;4146606;28;20572;-64
2022/07/06 02:57:22;;;;;;;10.98;9.05;;;;;;;21.04;68.38;94598.06;4132268;28;20132;-66
2022/07/06 02:59:24;;;;;;;13.20;8.95;;;;;;;21.01;68.76;94603.81;4144541;28;20458;-67
2022/07/06 03:01:26;;;;;;;10.55;8.88;;;;;;;21.01;68.58;94606.47;4130470;28;20054;-66
2022/07/06 03:03:27;;;;;;;9.93;8.73;;;;;;;21.08;68.20;94607.22;4129429;28;20046;-65
2022/07/06 03:05:29;;;;;;;11.52;9.13;;;;;;;21.17;68.01;94605.84;4130577;28;20058;-65
2022/07/06 03:07:31;;;;;;;12.13;9.57;;;;;;;21.23;67.67;94601.44;4130478;28;20113;-65
2022/07/06 03:09:33;;;;;;;9.43;8.45;;;;;;;21.24;67.09;94605.75;4132467;28;20054;-66
2022/07/06 03:11:35;;;;;;;10.88;7.85;;;;;;;21.28;66.92;94610.38;4142172;28;20054;-65
2022/07/06 03:13:37;;;;;;;8.82;7.75;;;;;;;21.36;66.49;94606.59;4135788;28;20145;-64
2022/07/06 03:15:39;;;;;;;9.15;7.95;;;;;;;21.36;66.47;94611.09;4136749;28;20508;-65
2022/07/06 03:17:41;;;;;;;9.15;7.70;;;;;;;21.43;66.21;94614.53;4129273;28;20058;-65
2022/07/06 03:19:43;;;;;;;11.23;8.10;;;;;;;21.42;65.67;94620.88;4146717;28;20516;-64
2022/07/06 03:21:45;;;;;;;10.55;7.85;;;;;;;21.45;65.81;94623.91;4143919;28;20054;-65
2022/07/06 03:23:47;;;;;;;11.23;7.93;;;;;;;21.43;66.01;94620.66;4128028;28;20050;-65
2022/07/06 03:25:49;;;;;;;9.45;8.45;;;;;;;21.39;66.02;94622.13;4139128;28;20476;-66
2022/07/06 03:27:51;;;;;;;10.13;8.23;;;;;;;21.37;65.82;94623.41;4145728;28;20061;-66
2022/07/06 03:29:52;;;;;;;10.95;7.15;;;;;;;21.36;65.78;94621.75;4131874;28;20105;-65
2022/07/06 03:31:54;;;;;;;13.32;7.55;;;;;;;21.29;65.68;94635.19;4146797;28;20052;-65
2022/07/06 03:33:56;;;;;;;9.27;7.05;;;;;;;21.22;65.79;94631.81;4139970;28;20386;-65
2022/07/06 03:35:58;;;;;;;12.15;6.22;;;;;;;21.25;65.79;94634.84;4130783;28;20057;-64
2022/07/06 03:38:00;;;;;;;9.32;6.47;;;;;;;21.25;65.54;94637.50;4138507;28;20612;-66
2022/07/06 03:40:02;;;;;;;9.40;6.38;;;;;;;21.21;65.52;94646.19;4132406;28;20095;-66
2022/07/06 03:42:04;;;;;;;8.65;6.53;;;;;;;21.21;65.83;94639.00;4144501;28;20046;-64
2022/07/06 03:44:05;;;;;;;8.30;6.60;;;;;;;21.30;65.15;94641.34;4139146;28;20494;-64
2022/07/06 03:46:07;;;;;;;9.48;6.07;;;;;;;21.34;64.86;94638.00;4137059;28;20054;-66
2022/07/06 03:48:09;;;;;;;7.00;5.55;;;;;;;21.41;64.38;94644.06;4132456;28;20477;-66
2022/07/06 03:50:11;;;;;;;6.85;5.53;;;;;;;21.42;64.55;94639.53;4130343;28;20050;-64
2022/07/06 03:52:13;;;;;;;7.22;5.78;;;;;;;21.46;64.25;94638.03;4143541;28;20279;-66
2022/07/06 03:54:15;;;;;;;7.07;6.10;;;;;;;21.52;64.31;94641.66;4144399;28;20433;-65
2022/07/06 03:56:29;;;;;;;8.07;5.55;;;;;;;21.48;64.19;94626.09;4146685;28;20470;-67
2022/07/06 03:58:30;;;;;;;;;;;;;;;21.46;63.32;94644.16;4131586;28;20077;-65
2022/07/06 04:00:34;;;;;;;7.95;5.15;;;;;;;21.53;63.68;94638.78;4128892;28;19925;-65
2022/07/06 04:02:36;;;;;;;;;;;;;;;21.56;63.40;94642.81;4142594;28;20052;-66
2022/07/06 04:04:38;;;;;;;9.10;5.50;;;;;;;21.54;63.32;94640.38;4133083;28;19957;-65
2022/07/06 04:06:40;;;;;;;7.97;4.82;;;;;;;21.64;63.37;94656.63;4146185;28;20149;-66
2022/07/06 04:08:41;;;;;;;7.38;4.88;;;;;;;21.71;63.25;94650.38;4145725;28;20387;-65
2022/07/06 04:10:43;;;;;;;8.68;5.35;;;;;;;21.61;63.48;94653.59;4134614;28;20127;-66
2022/07/06 04:12:45;;;;;;;5.85;5.00;;;;;;;21.66;62.67;94657.22;4129589;28;20450;-63
2022/07/06 04:14:47;;;;;;;6.35;4.78;;;;;;;21.66;62.37;94649.22;4140334;28;20047;-65
2022/07/06 04:16:48;;;;;;;7.20;4.93;;;;;;;21.57;62.51;94645.25;4130168;28;20112;-65
2022/07/06 04:18:50;;;;;;;5.78;4.75;;;;;;;21.42;63.09;94658.19;4135698;28;20081;-65
2022/07/06 04:20:52;;;;;;;9.35;4.85;;;;;;;21.39;63.72;94647.97;4153430;28;20053;-65
2022/07/06 04:22:54;;;;;;;7.03;4.53;;;;;;;21.46;63.49;94656.69;4139874;28;20487;-64
2022/07/06 04:24:56;;;;;;;7.07;5.05;;;;;;;21.52;63.32;94654.97;4129535;28;20152;-66
2022/07/06 04:26:57;;;;;;;7.93;5.05;;;;;;;21.63;63.50;94655.00;4144824;28;20469;-68
2022/07/06 04:28:59;;;;;;;6.30;5.00;;;;;;;21.74;63.39;94660.59;4138520;28;20046;-66
2022/07/06 04:31:01;;;;;;;6.63;4.95;;;;;;;21.88;62.68;94656.66;4129776;28;20101;-66
2022/07/06 04:33:03;;;;;;;8.18;5.15;;;;;;;22.01;62.41;94659.09;4140830;28;20085;-67
2022/07/06 04:35:05;;;;;;;8.27;5.20;;;;;;;21.91;62.72;94666.88;4128328;28;20042;-66
2022/07/06 04:37:07;;;;;;;9.20;5.93;;;;;;;21.63;64.27;94676.31;4128589;28;20057;-67
2022/07/06 04:39:09;;;;;;;7.88;5.68;;;;;;;21.65;63.71;94671.56;4136582;28;20042;-65
2022/07/06 04:41:11;;;;;;;6.47;5.00;;;;;;;21.71;64.15;94671.72;4144575;28;20460;-64
2022/07/06 04:43:13;;;;;;;6.85;5.35;;;;;;;21.73;63.85;94688.31;4144076;28;20111;-67
2022/07/06 04:45:15;;;;;;;8.45;5.65;;;;;;;21.69;64.29;94687.94;4128440;28;20056;-65
2022/07/06 04:47:17;;;;;;;8.25;5.40;;;;;;;21.31;65.88;94701.56;4128057;28;20046;-68
2022/07/06 04:49:19;;;;;;;8.32;5.88;;;;;;;21.15;66.01;94719.00;4134544;28;20084;-66
2022/07/06 04:51:21;;;;;;;8.20;6.88;;;;;;;21.10;66.33;94711.69;4135666;28;20461;-69
2022/07/06 04:53:22;;;;;;;9.57;7.85;;;;;;;20.71;67.38;94711.09;4140455;28;20408;-66
2022/07/06 04:55:24;;;;;;;12.50;7.97;;;;;;;20.65;68.04;94712.81;4133118;28;20588;-63
2022/07/06 04:57:29;;;;;;;10.02;7.10;;;;;;;20.76;67.86;94719.22;4142224;28;20450;-64
2022/07/06 04:59:31;;;;;;;10.35;8.48;;;;;;;20.77;67.90;94718.19;4132530;28;20108;-64
2022/07/06 05:01:32;;;;;;;11.40;8.27;;;;;;;20.83;67.66;94722.63;4138527;28;20058;-66
2022/07/06 05:03:39;;;;;;;12.73;8.95;;;;;;;20.75;67.90;94717.59;4136766;28;20056;-66
2022/07/06 05:05:41;;;;;;;11.50;9.38;;;;;;;20.78;67.89;94733.13;4132182;28;20124;-66
2022/07/06 05:07:43;;;;;;;10.52;9.27;;;;;;;20.75;68.21;94727.44;4142174;28;20456;-65
2022/07/06 05:09:44;;;;;;;13.73;10.07;;;;;;;20.60;68.43;94725.13;4128463;28;20042;-67
2022/07/06 05:11:52;;;;;;;15.27;10.55;;;;;;;20.44;68.66;94734.47;4136075;28;20092;-65
2022/07/06 05:13:54;;;;;;;13.40;10.30;;;;;;;20.55;68.57;94728.44;4134868;28;20050;-65
2022/07/06 05:15:56;;;;;;;13.50;10.18;;;;;;;20.58;68.14;94736.00;4139497;28;20050;-67
2022/07/06 05:17:58;;;;;;;13.52;10.98;;;;;;;20.64;68.25;94726.31;4141299;28;20054;-67
2022/07/06 05:20:18;;;;;;;14.23;9.98;;;;;;;20.73;68.24;94735.63;4142389;28;20058;-66
2022/07/06 05:22:20;;;;;;;14.60;10.60;;;;;;;20.71;67.66;94735.03;4138758;28;20124;-65
2022/07/06 05:24:22;;;;;;;12.57;10.57;;;;;;;20.65;68.42;94734.09;4127939;28;20482;-64
2022/07/06 05:26:24;;;;;;;12.18;9.57;;;;;;;20.71;67.95;94739.56;4140593;28;20108;-67
2022/07/06 05:28:27;;;;;;;16.23;10.50;;;;;;;20.76;67.81;94745.84;4144901;28;20111;-68
2022/07/06 05:30:36;;;;;;;13.35;10.50;;;;;;;20.93;67.40;94740.75;4144084;28;20065;-66
2022/07/06 05:32:38;;;;;;;14.68;9.23;;;;;;;21.09;66.93;94734.00;4143541;28;20061;-65
2022/07/06 05:34:40;;;;;;;14.30;10.02;;;;;;;21.36;66.26;94747.81;4143409;28;20561;-67
2022/07/06 05:36:42;;;;;;;11.52;9.10;;;;;;;21.34;65.68;94741.91;4129348;28;20066;-65
2022/07/06 05:38:44;;;;;;;13.70;7.88;;;;;;;21.40;65.14;94740.16;4131360;28;20041;-65
2022/07/06 05:40:46;;;;;;;13.35;8.68;;;;;;;21.55;65.10;94737.94;4143961;28;20050;-65
2022/07/06 05:42:47;;;;;;;13.60;8.90;;;;;;;21.59;64.79;94744.44;4143900;28;20484;-65
2022/07/06 05:44:49;;;;;;;9.02;7.78;;;;;;;21.72;64.38;94747.97;4133519;28;20089;-67
2022/07/06 05:46:51;;;;;;;11.73;8.55;;;;;;;21.78;64.31;94739.88;4141645;28;20464;-65
2022/07/06 05:51:13;;;;;;;11.50;8.27;;;;;;;22.02;62.88;94743.41;4136825;28;20454;-66
2022/07/06 05:53:15;;;;;;;14.30;8.38;;;;;;;22.02;62.47;94739.94;4141543;28;20108;-68
2022/07/06 05:55:20;;;;;;;11.70;9.00;;;;;;;22.26;62.93;94752.31;4132977;28;20046;-67
2022/07/06 05:57:22;;;;;;;10.40;8.13;;;;;;;22.27;62.27;94747.78;4127851;28;20134;-66
2022/07/06 05:59:24;;;;;;;12.18;7.72;;;;;;;22.26;61.90;94751.47;4128013;28;20136;-66
2022/07/06 06:01:26;;;;;;;13.75;8.25;;;;;;;22.28;62.21;94752.06;4136604;28;20049;-66
2022/07/06 06:03:28;;;;;;;13.55;8.93;;;;;;;22.19;62.37;94743.56;4145819;28;20290;-66
2022/07/06 06:05:30;;;;;;;8.95;8.02;;;;;;;22.12;62.03;94747.41;4137097;28;20487;-65
2022/07/06 06:07:33;;;;;;;14.20;8.07;;;;;;;21.99;62.25;94746.56;4131246;28;20058;-66
2022/07/06 06:09:35;;;;;;;11.85;6.93;;;;;;;21.85;62.06;94739.78;4143468;28;20090;-66
2022/07/06 06:11:37;;;;;;;11.15;7.10;;;;;;;21.81;62.40;94752.78;4131573;28;20053;-67
2022/07/06 06:13:39;;;;;;;10.02;7.28;;;;;;;21.72;62.83;94737.31;4137642;28;20053;-66
2022/07/06 06:15:41;;;;;;;9.95;7.88;;;;;;;21.65;63.05;94742.75;4145845;28;20482;-65
2022/07/06 06:17:43;;;;;;;10.02;8.10;;;;;;;21.63;63.40;94745.63;4131322;28;20796;-66
2022/07/06 06:19:45;;;;;;;8.48;7.50;;;;;;;21.60;63.19;94748.75;4144041;28;20128;-67
2022/07/06 06:21:46;;;;;;;11.13;8.93;;;;;;;21.52;64.04;94740.28;4134355;28;20042;-65
2022/07/06 06:23:48;;;;;;;11.82;8.30;;;;;;;21.18;65.23;94740.66;4143841;28;20050;-64
2022/07/06 06:25:50;;;;;;;15.75;8.55;;;;;;;20.96;66.33;94742.97;4145117;28;20481;-66
2022/07/06 06:27:52;;;;;;;14.73;8.95;;;;;;;21.11;65.95;94750.59;4146346;28;20050;-65
2022/07/06 06:29:54;;;;;;;11.38;8.60;;;;;;;21.19;65.40;94739.63;4145019;28;20045;-66
2022/07/06 06:31:55;;;;;;;12.10;9.45;;;;;;;21.37;65.47;94741.44;4143717;28;20072;-66
2022/07/06 06:33:57;;;;;;;14.85;9.07;;;;;;;21.56;65.01;94744.91;4134803;28;20053;-67
2022/07/06 06:35:59;;;;;;;11.38;9.00;;;;;;;21.46;65.45;94742.78;4138292;28;20117;-67
2022/07/06 06:38:01;;;;;;;12.13;9.90;;;;;;;21.54;65.38;94744.31;4141056;28;20048;-66
2022/07/06 06:40:04;;;;;;;12.75;9.57;;;;;;;21.52;65.44;94733.06;4145892;28;20484;-66
2022/07/06 06:42:06;;;;;;;;;;;;;;;21.54;65.28;94739.00;4131294;28;20109;-67
2022/07/06 06:44:08;;;;;;;16.58;10.60;;;;;;;21.67;64.94;94736.13;4130706;28;19933;-65
2022/07/06 06:46:10;;;;;;;12.45;10.38;;;;;;;21.86;64.87;94725.41;4138717;28;20104;-66
2022/07/06 06:48:12;;;;;;;12.18;10.13;;;;;;;21.90;64.51;94726.59;4144432;28;20133;-66
2022/07/06 06:50:18;;;;;;;13.77;10.25;;;;;;;22.08;63.52;94734.50;4144375;28;20138;-67
2022/07/06 06:52:20;;;;;;;11.15;10.05;;;;;;;22.16;62.67;94727.22;4133012;28;20246;-65
2022/07/06 06:54:41;;;;;;;16.45;11.88;;;;;;;22.13;62.64;94741.00;4135909;28;20049;-66
2022/07/06 06:56:43;;;;;;;13.15;10.52;;;;;;;22.12;63.25;94726.06;4145241;28;20061;-67
2022/07/06 06:58:45;;;;;;;15.40;11.23;;;;;;;22.12;63.62;94736.72;4144153;28;20354;-68
2022/07/06 07:01:06;;;;;;;12.40;10.57;;;;;;;22.18;63.21;94725.94;4129689;28;20619;-67
2022/07/06 07:03:10;;;;;;;13.73;10.32;;;;;;;22.28;62.79;94725.38;4129681;28;20252;-65
2022/07/06 07:05:11;;;;;;;15.38;10.63;;;;;;;22.29;62.52;94738.50;4130178;28;20062;-66
2022/07/06 07:07:13;;;;;;;12.88;11.57;;;;;;;22.31;62.03;94732.94;4134804;28;20420;-67
2022/07/06 07:09:15;;;;;;;12.82;11.40;;;;;;;22.20;62.12;94728.34;4132293;28;20050;-65
2022/07/06 07:11:17;;;;;;;18.10;11.98;;;;;;;21.88;63.68;94728.69;4142208;28;20433;-68
2022/07/06 07:13:18;;;;;;;13.10;11.75;;;;;;;21.24;65.24;94737.09;4134367;28;20107;-65
2022/07/06 07:15:20;;;;;;;15.38;11.32;;;;;;;21.37;65.70;94729.97;4138419;28;20592;-67
2022/07/06 07:17:22;;;;;;;13.70;11.80;;;;;;;21.48;65.18;94735.38;4140172;28;20057;-68
2022/07/06 07:19:24;;;;;;;14.95;12.07;;;;;;;21.50;65.05;94743.16;4132745;28;20058;-66
2022/07/06 07:21:26;;;;;;;15.55;12.30;;;;;;;21.17;66.08;94738.22;4145686;28;20071;-66
2022/07/06 07:23:28;;;;;;;14.10;10.77;;;;;;;21.28;65.57;94730.28;4133473;28;20081;-66
2022/07/06 07:25:30;;;;;;;15.30;12.13;;;;;;;21.52;65.71;94738.41;4136959;28;20509;-66
2022/07/06 07:27:32;;;;;;;16.30;12.02;;;;;;;21.67;63.81;94725.47;4145192;28;20049;-65
2022/07/06 07:29:33;;;;;;;13.10;11.45;;;;;;;21.95;63.27;94718.72;4145350;28;20120;-67
2022/07/06 07:31:35;;;;;;;16.35;11.32;;;;;;;22.22;62.77;94727.13;4143911;28;20105;-65
2022/07/06 07:33:37;;;;;;;15.00;11.60;;;;;;;22.46;61.83;94732.47;4140851;28;20078;-66
2022/07/06 07:35:39;;;;;;;15.73;11.98;;;;;;;22.54;61.15;94734.78;4130524;28;20053;-67
2022/07/06 07:37:41;;;;;;;16.30;12.82;;;;;;;22.61;61.23;94727.47;4138320;28;20046;-66
2022/07/06 07:39:43;;;;;;;12.93;10.90;;;;;;;22.75;60.76;94729.91;4135045;28;20096;-66
2022/07/06 07:41:44;;;;;;;15.80;11.27;;;;;;;22.77;60.52;94725.16;4127440;28;20488;-68
2022/07/06 07:43:46;;;;;;;15.07;12.18;;;;;;;22.82;60.57;94726.06;4132569;28;20307;-68
2022/07/06 07:45:49;;;;;;;15.10;11.98;;;;;;;22.57;61.00;94722.84;4139924;28;20349;-66
2022/07/06 07:47:51;;;;;;;16.33;11.88;;;;;;;22.64;61.14;94729.69;4128685;28;20054;-66
2022/07/06 07:49:52;;;;;;;15.13;11.82;;;;;;;22.92;60.35;94716.66;4139738;28;20053;-67
2022/07/06 07:51:54;;;;;;;14.88;11.43;;;;;;;23.16;59.27;94720.91;4131441;28;20133;-69
2022/07/06 07:53:56;;;;;;;13.93;11.50;;;;;;;23.41;58.27;94719.78;4144341;28;20477;-68
2022/07/06 07:55:58;;;;;;;16.13;12.50;;;;;;;23.01;59.99;94721.41;4128634;28;20062;-69
2022/07/06 07:58:00;;;;;;;14.00;11.02;;;;;;;23.08;59.79;94723.94;4128490;28;20410;-67
2022/07/06 08:00:04;;;;;;;16.98;11.75;;;;;;;23.21;58.93;94717.50;4134936;28;20525;-69
2022/07/06 08:02:06;;;;;;;13.52;10.57;;;;;;;23.40;58.36;94718.16;4144974;28;20457;-68
2022/07/06 08:04:08;;;;;;;13.45;10.50;;;;;;;23.52;58.35;94714.38;4144436;28;20065;-67
2022/07/06 08:06:10;;;;;;;11.88;10.65;;;;;;;23.68;58.11;94720.84;4129373;28;20134;-68
2022/07/06 08:08:11;;;;;;;12.63;10.45;;;;;;;23.62;57.64;94721.00;4134311;28;20132;-67
2022/07/06 08:10:13;;;;;;;13.20;10.68;;;;;;;23.59;57.10;94724.94;4145310;28;20054;-66
2022/07/06 08:12:15;;;;;;;11.45;9.63;;;;;;;23.53;57.21;94728.56;4134766;28;20079;-66
2022/07/06 08:14:17;;;;;;;11.95;9.82;;;;;;;23.66;56.78;94724.78;4128034;28;20108;-67
2022/07/06 08:16:19;;;;;;;11.43;10.10;;;;;;;23.80;57.12;94726.13;4131128;28;20058;-66
2022/07/06 08:18:21;;;;;;;12.10;10.82;;;;;;;23.94;56.72;94726.66;4140346;28;20043;-66
2022/07/06 08:20:23;;;;;;;12.60;11.37;;;;;;;24.15;55.88;94727.78;4139258;28;20081;-67
2022/07/06 08:22:26;;;;;;;12.10;10.23;;;;;;;24.25;55.47;94716.44;4129061;28;20288;-67
2022/07/06 08:24:28;;;;;;;12.00;10.80;;;;;;;24.38;55.36;94726.81;4130009;28;20050;-68
2022/07/06 08:26:30;;;;;;;11.40;10.02;;;;;;;24.66;54.50;94730.47;4142964;28;20405;-66
2022/07/06 08:28:32;;;;;;;13.32;10.10;;;;;;;24.73;54.18;94712.34;4141353;28;20125;-66
2022/07/06 08:30:34;;;;;;;12.75;10.88;;;;;;;24.94;54.27;94719.59;4134762;28;20123;-67
2022/07/06 08:32:38;;;;;;;13.73;10.68;;;;;;;25.08;54.21;94721.91;4134943;28;20144;-67
2022/07/06 08:35:00;;;;;;;14.55;10.98;;;;;;;24.96;54.63;94722.03;4126709;28;20101;-65
2022/07/06 08:37:02;;;;;;;14.30;11.13;;;;;;;24.87;54.57;94718.19;4132256;28;20045;-66
2022/07/06 08:39:04;;;;;;;11.30;9.15;;;;;;;24.67;54.11;94719.53;4139291;28;20049;-67
2022/07/06 08:41:06;;;;;;;13.35;9.90;;;;;;;24.55;54.80;94720.69;4137292;28;20084;-67
2022/07/06 08:43:08;;;;;;;12.10;9.82;;;;;;;24.57;54.26;94724.72;4132917;28;20112;-66
2022/07/06 08:45:10;;;;;;;11.57;10.38;;;;;;;24.53;55.15;94716.38;4141365;28;20057;-66
2022/07/06 08:47:14;;;;;;;11.60;10.43;;;;;;;24.61;55.02;94719.66;4127859;28;20046;-66
2022/07/06 08:49:17;;;;;;;10.75;9.65;;;;;;;24.76;54.53;94716.41;4125919;28;20509;-69
2022/07/06 08:51:19;;;;;;;13.70;11.48;;;;;;;24.90;54.76;94710.44;4128939;28;20054;-66
2022/07/06 08:53:20;;;;;;;12.20;10.98;;;;;;;24.80;55.36;94717.53;4137096;28;20049;-67
2022/07/06 08:55:23;;;;;;;13.80;10.88;;;;;;;24.64;55.15;94722.69;4144100;28;20077;-68
2022/07/06 08:57:25;;;;;;;14.52;11.23;;;;;;;24.82;55.05;94726.13;4127746;28;20062;-66
2022/07/06 08:59:27;;;;;;;13.70;11.50;;;;;;;24.93;54.77;94712.63;4128729;28;20053;-67
2022/07/06 09:01:29;;;;;;;12.93;10.77;;;;;;;24.77;55.09;94715.34;4132785;28;20061;-66
2022/07/06 09:03:32;;;;;;;12.07;10.50;;;;;;;24.92;54.43;94713.69;4133236;28;20494;-66
2022/07/06 09:05:35;;;;;;;12.10;10.73;;;;;;;25.14;53.60;94715.56;4128600;28;20141;-65
2022/07/06 09:07:37;;;;;;;12.70;11.40;;;;;;;24.89;55.06;94716.88;4141763;28;20065;-64
2022/07/06 09:09:59;;;;;;;11.70;10.07;;;;;;;24.75;55.14;94720.16;4134151;28;20105;-66
2022/07/06 09:12:01;;;;;;;13.37;10.60;;;;;;;24.73;54.83;94720.38;4128479;28;20149;-67
2022/07/06 09:14:05;;;;;;;12.75;10.73;;;;;;;24.81;55.10;94709.25;4126380;28;20054;-66
2022/07/06 09:16:11;;;;;;;10.90;9.57;;;;;;;24.85;54.27;94713.06;4128264;28;20046;-66
2022/07/06 09:18:37;;;;;;;12.90;10.13;;;;;;;25.09;54.43;94721.66;4140574;28;20046;-67
2022/07/06 09:20:41;;;;;;;13.68;11.32;;;;;;;24.09;56.21;94734.09;4137114;28;20046;-66
2022/07/06 09:22:43;;;;;;;17.27;13.27;;;;;;;23.23;58.42;94713.59;4128774;28;20058;-66
2022/07/06 09:24:45;;;;;;;15.60;12.23;;;;;;;22.95;59.78;94724.19;4127863;28;20139;-66
2022/07/06 09:26:48;;;;;;;11.40;10.30;;;;;;;23.46;58.66;94727.91;4142682;28;20517;-66
2022/07/06 09:28:50;;;;;;;15.07;10.95;;;;;;;23.63;57.88;94710.03;4138568;28;20356;-67
2022/07/06 09:30:55;;;;;;;11.93;10.52;;;;;;;23.94;57.72;94709.78;4135923;28;20474;-66